createdAt,value
2022-12-15T00:00:45.321Z,266.84
2022-12-15T00:01:40.696Z,267.71
2022-12-15T00:02:35.994Z,266.19
2022-12-15T00:03:31.582Z,268.36
2022-12-15T00:04:26.288Z,269.69
2022-12-15T00:05:21.543Z,268.58
2022-12-15T00:06:16.740Z,268.58
2022-12-15T00:07:12.019Z,268.14
2022-12-15T00:08:07.242Z,266.84
2022-12-15T00:09:02.590Z,268.14
2022-12-15T00:09:57.764Z,266.40
2022-12-15T00:10:53.000Z,265.54
2022-12-15T00:11:48.194Z,267.49
2022-12-15T00:12:43.602Z,266.62
2022-12-15T00:13:38.677Z,268.36
2022-12-15T00:14:34.023Z,268.58
2022-12-15T00:15:29.229Z,269.69
2022-12-15T00:16:24.674Z,269.24
2022-12-15T00:17:19.730Z,270.80
2022-12-15T00:18:15.118Z,271.47
2022-12-15T00:19:10.184Z,271.47
2022-12-15T00:20:05.458Z,271.47
2022-12-15T00:21:00.586Z,270.35
2022-12-15T00:21:55.950Z,270.80
2022-12-15T00:22:51.268Z,271.25
2022-12-15T00:23:46.553Z,272.37
2022-12-15T00:24:41.726Z,271.92
2022-12-15T00:25:36.976Z,271.92
2022-12-15T00:26:32.176Z,272.15
2022-12-15T00:27:27.366Z,274.65
2022-12-15T00:28:22.586Z,275.11
2022-12-15T00:29:17.934Z,277.44
2022-12-15T00:30:13.132Z,275.11
2022-12-15T00:31:08.420Z,277.44
2022-12-15T00:32:03.520Z,280.29
2022-12-15T00:32:59.004Z,280.77
2022-12-15T00:33:54.100Z,280.52
2022-12-15T00:34:49.321Z,281.25
2022-12-15T00:35:44.530Z,281.97
2022-12-15T00:36:39.873Z,282.21
2022-12-15T00:37:35.068Z,281.97
2022-12-15T00:38:30.298Z,280.52
2022-12-15T00:39:25.476Z,281.01
2022-12-15T00:40:20.708Z,283.92
2022-12-15T00:41:15.897Z,284.66
2022-12-15T00:42:11.226Z,282.70
2022-12-15T00:43:06.582Z,285.40
2022-12-15T00:44:01.696Z,286.15
2022-12-15T00:44:56.891Z,284.91
2022-12-15T00:45:52.141Z,286.15
2022-12-15T00:46:47.364Z,286.40
2022-12-15T00:47:42.663Z,285.90
2022-12-15T00:48:37.865Z,285.90
2022-12-15T00:49:33.209Z,286.65
2022-12-15T00:50:28.381Z,287.15
2022-12-15T00:51:23.629Z,287.40
2022-12-15T00:52:18.831Z,285.90
2022-12-15T00:53:14.195Z,286.90
2022-12-15T00:54:13.275Z,287.91
2022-12-15T00:55:05.534Z,286.90
2022-12-15T00:55:59.820Z,287.66
2022-12-15T00:56:55.011Z,289.69
2022-12-15T00:57:50.207Z,288.67
2022-12-15T00:58:45.437Z,288.92
2022-12-15T00:59:40.621Z,287.15
2022-12-15T01:00:35.966Z,286.90
2022-12-15T01:01:31.124Z,287.91
2022-12-15T01:02:26.392Z,287.91
2022-12-15T01:03:21.569Z,288.16
2022-12-15T01:04:16.788Z,288.67
2022-12-15T01:05:11.986Z,286.90
2022-12-15T01:06:07.220Z,289.69
2022-12-15T01:07:02.420Z,288.42
2022-12-15T01:07:57.632Z,287.40
2022-12-15T01:08:52.876Z,289.43
2022-12-15T01:09:48.076Z,288.67
2022-12-15T01:10:43.410Z,288.67
2022-12-15T01:11:38.630Z,287.15
2022-12-15T01:12:33.700Z,286.40
2022-12-15T01:13:29.353Z,285.16
2022-12-15T01:14:24.121Z,284.66
2022-12-15T01:15:19.505Z,284.42
2022-12-15T01:16:14.789Z,281.73
2022-12-15T01:17:10.022Z,281.73
2022-12-15T01:18:05.340Z,280.77
2022-12-15T01:19:00.441Z,280.05
2022-12-15T01:19:55.653Z,279.57
2022-12-15T01:20:50.895Z,277.44
2022-12-15T01:21:46.084Z,275.35
2022-12-15T01:22:41.298Z,275.11
2022-12-15T01:23:36.555Z,275.58
2022-12-15T01:24:31.766Z,274.65
2022-12-15T01:25:26.963Z,272.60
2022-12-15T01:26:22.193Z,271.70
2022-12-15T01:27:17.530Z,271.02
2022-12-15T01:28:12.894Z,271.70
2022-12-15T01:29:07.999Z,269.69
2022-12-15T01:30:03.212Z,270.58
2022-12-15T01:30:58.480Z,271.25
2022-12-15T01:31:53.741Z,270.13
2022-12-15T01:32:48.963Z,269.02
2022-12-15T01:33:44.178Z,268.14
2022-12-15T01:34:39.509Z,270.35
2022-12-15T01:35:34.726Z,269.24
2022-12-15T01:36:29.989Z,268.80
2022-12-15T01:37:25.199Z,268.80
2022-12-15T01:38:20.528Z,269.47
2022-12-15T01:39:15.618Z,267.93
2022-12-15T01:40:10.835Z,269.02
2022-12-15T01:41:06.090Z,268.14
2022-12-15T01:42:01.269Z,267.93
2022-12-15T01:42:56.465Z,267.05
2022-12-15T01:43:51.728Z,267.93
2022-12-15T01:44:46.918Z,266.40
2022-12-15T01:45:42.145Z,268.36
2022-12-15T01:46:37.376Z,268.14
2022-12-15T01:47:32.586Z,269.69
2022-12-15T01:48:27.925Z,268.14
2022-12-15T01:49:23.157Z,270.80
2022-12-15T01:50:18.351Z,270.13
2022-12-15T01:51:13.620Z,268.36
2022-12-15T01:52:08.810Z,267.93
2022-12-15T01:53:04.030Z,267.93
2022-12-15T01:53:59.238Z,268.80
2022-12-15T01:54:54.592Z,268.58
2022-12-15T01:55:49.930Z,268.80
2022-12-15T01:56:45.057Z,266.62
2022-12-15T01:57:40.258Z,267.71
2022-12-15T01:58:35.626Z,266.19
2022-12-15T01:59:30.737Z,267.71
2022-12-15T02:00:26.016Z,267.05
2022-12-15T02:01:21.268Z,267.05
2022-12-15T02:02:16.600Z,264.90
2022-12-15T02:03:11.647Z,265.33
2022-12-15T02:04:06.875Z,262.78
2022-12-15T02:05:02.072Z,262.57
2022-12-15T02:05:57.278Z,262.78
2022-12-15T02:06:52.510Z,262.36
2022-12-15T02:07:47.742Z,263.83
2022-12-15T02:08:43.125Z,263.20
2022-12-15T02:09:38.219Z,262.36
2022-12-15T02:10:33.412Z,263.41
2022-12-15T02:11:28.700Z,261.73
2022-12-15T02:12:23.897Z,264.05
2022-12-15T02:13:19.097Z,261.31
2022-12-15T02:14:14.318Z,262.36
2022-12-15T02:15:09.543Z,262.57
2022-12-15T02:16:04.856Z,262.78
2022-12-15T02:17:00.060Z,264.90
2022-12-15T02:17:55.245Z,264.05
2022-12-15T02:18:50.725Z,264.47
2022-12-15T02:19:45.815Z,264.26
2022-12-15T02:20:41.160Z,267.71
2022-12-15T02:21:36.391Z,267.05
2022-12-15T02:22:31.603Z,267.71
2022-12-15T02:23:26.798Z,268.36
2022-12-15T02:24:22.012Z,269.02
2022-12-15T02:25:17.236Z,269.47
2022-12-15T02:26:12.468Z,269.47
2022-12-15T02:27:07.684Z,269.91
2022-12-15T02:28:02.903Z,272.83
2022-12-15T02:28:58.231Z,273.05
2022-12-15T02:29:53.361Z,273.74
2022-12-15T02:30:48.554Z,277.91
2022-12-15T02:31:43.803Z,277.68
2022-12-15T02:32:39.000Z,277.21
2022-12-15T02:33:34.672Z,279.33
2022-12-15T02:34:29.416Z,279.81
2022-12-15T02:35:24.617Z,282.46
2022-12-15T02:36:19.804Z,283.68
2022-12-15T02:37:15.038Z,282.70
2022-12-15T02:38:10.217Z,286.65
2022-12-15T02:39:05.678Z,285.40
2022-12-15T02:40:00.800Z,286.65
2022-12-15T02:40:56.012Z,285.90
2022-12-15T02:41:51.229Z,285.65
2022-12-15T02:42:46.436Z,286.40
2022-12-15T02:43:41.624Z,287.91
2022-12-15T02:44:36.866Z,288.92
2022-12-15T02:45:32.254Z,288.92
2022-12-15T02:46:27.307Z,288.16
2022-12-15T02:47:22.508Z,288.92
2022-12-15T02:48:17.742Z,290.71
2022-12-15T02:49:13.064Z,289.69
2022-12-15T02:50:08.331Z,290.71
2022-12-15T02:51:03.510Z,289.69
2022-12-15T02:51:58.753Z,292.53
2022-12-15T02:52:53.938Z,293.05
2022-12-15T02:53:49.158Z,292.53
2022-12-15T02:54:44.399Z,293.58
2022-12-15T02:55:39.630Z,295.96
2022-12-15T02:56:34.819Z,296.76
2022-12-15T02:57:30.072Z,299.20
2022-12-15T02:58:25.259Z,298.11
2022-12-15T02:59:20.758Z,300.29
2022-12-15T03:00:15.974Z,301.40
2022-12-15T03:01:11.968Z,300.02
2022-12-15T03:02:07.150Z,303.63
2022-12-15T03:03:02.441Z,302.79
2022-12-15T03:03:57.617Z,303.63
2022-12-15T03:04:52.842Z,303.63
2022-12-15T03:05:48.209Z,303.63
2022-12-15T03:06:43.311Z,304.19
2022-12-15T03:07:38.502Z,302.51
2022-12-15T03:08:33.739Z,301.67
2022-12-15T03:09:28.962Z,302.51
2022-12-15T03:10:24.292Z,301.12
2022-12-15T03:11:19.670Z,304.47
2022-12-15T03:12:14.779Z,304.76
2022-12-15T03:13:09.973Z,306.46
2022-12-15T03:14:05.216Z,304.19
2022-12-15T03:15:00.594Z,304.76
2022-12-15T03:15:55.835Z,304.19
2022-12-15T03:16:51.105Z,304.76
2022-12-15T03:17:46.335Z,305.04
2022-12-15T03:18:41.553Z,305.32
2022-12-15T03:19:36.765Z,303.07
2022-12-15T03:20:31.964Z,303.63
2022-12-15T03:21:27.243Z,303.07
2022-12-15T03:22:22.437Z,301.95
2022-12-15T03:23:17.802Z,299.20
2022-12-15T03:24:12.875Z,299.47
2022-12-15T03:25:08.125Z,297.03
2022-12-15T03:26:03.475Z,298.11
2022-12-15T03:26:58.560Z,297.03
2022-12-15T03:27:53.935Z,297.03
2022-12-15T03:28:49.059Z,294.37
2022-12-15T03:29:44.256Z,295.43
2022-12-15T03:30:39.542Z,294.10
2022-12-15T03:31:34.934Z,292.27
2022-12-15T03:32:30.148Z,286.40
2022-12-15T03:33:26.610Z,281.73
2022-12-15T03:34:21.839Z,282.21
2022-12-15T03:35:17.186Z,284.91
2022-12-15T03:36:12.300Z,286.90
2022-12-15T03:37:07.496Z,288.42
2022-12-15T03:38:02.799Z,288.67
2022-12-15T03:38:57.978Z,287.91
2022-12-15T03:39:53.401Z,288.16
2022-12-15T03:40:51.874Z,287.66
2022-12-15T03:41:47.076Z,290.97
2022-12-15T03:42:42.274Z,292.27
2022-12-15T03:43:37.573Z,292.01
2022-12-15T03:44:32.932Z,292.53
2022-12-15T03:45:28.142Z,292.53
2022-12-15T03:46:23.496Z,293.31
2022-12-15T03:47:18.680Z,293.31
2022-12-15T03:48:14.025Z,294.37
2022-12-15T03:49:09.127Z,295.96
2022-12-15T03:50:04.343Z,294.37
2022-12-15T03:50:59.620Z,295.43
2022-12-15T03:51:54.820Z,294.90
2022-12-15T03:52:50.050Z,294.90
2022-12-15T03:53:45.268Z,291.75
2022-12-15T03:54:40.627Z,292.79
2022-12-15T03:55:35.836Z,290.20
2022-12-15T03:56:31.100Z,293.58
2022-12-15T03:57:26.315Z,293.84
2022-12-15T03:58:21.559Z,295.16
2022-12-15T03:59:16.755Z,292.27
2022-12-15T04:00:11.964Z,290.71
2022-12-15T04:01:07.287Z,289.94
2022-12-15T04:02:02.740Z,290.97
2022-12-15T04:02:58.127Z,288.67
2022-12-15T04:03:57.015Z,290.20
2022-12-15T04:04:49.911Z,289.69
2022-12-15T04:05:47.593Z,285.65
2022-12-15T04:06:42.857Z,285.90
2022-12-15T04:07:38.027Z,283.68
2022-12-15T04:08:33.000Z,285.65
2022-12-15T04:09:28.022Z,286.40
2022-12-15T04:10:23.009Z,281.01
2022-12-15T04:11:18.040Z,281.25
2022-12-15T04:12:13.102Z,281.73
2022-12-15T04:13:08.219Z,283.19
2022-12-15T04:14:03.302Z,283.43
2022-12-15T04:14:58.429Z,285.40
2022-12-15T04:15:53.474Z,285.40
2022-12-15T04:16:48.663Z,286.65
2022-12-15T04:17:43.636Z,284.91
2022-12-15T04:18:38.717Z,282.21
2022-12-15T04:19:33.776Z,284.66
2022-12-15T04:20:30.396Z,280.77
2022-12-15T04:21:25.466Z,281.25
2022-12-15T04:22:20.564Z,283.68
2022-12-15T04:23:15.521Z,279.33
2022-12-15T04:24:10.622Z,279.33
2022-12-15T04:25:05.700Z,279.81
2022-12-15T04:26:00.813Z,279.57
2022-12-15T04:26:55.887Z,280.05
2022-12-15T04:27:51.014Z,278.86
2022-12-15T04:28:46.103Z,280.05
2022-12-15T04:29:41.192Z,280.77
2022-12-15T04:30:36.491Z,278.15
2022-12-15T04:31:31.509Z,255.21
2022-12-15T04:32:26.508Z,236.80
2022-12-15T04:33:24.075Z,239.21
2022-12-15T04:34:17.638Z,249.58
2022-12-15T04:35:11.669Z,253.24
2022-12-15T04:36:06.737Z,249.21
2022-12-15T04:37:03.628Z,249.96
2022-12-15T04:37:58.713Z,253.24
2022-12-15T04:38:53.844Z,251.88
2022-12-15T04:39:48.912Z,253.44
2022-12-15T04:40:44.412Z,254.62
2022-12-15T04:41:39.689Z,258.23
2022-12-15T04:42:34.925Z,262.78
2022-12-15T04:43:30.605Z,266.19
2022-12-15T04:44:26.049Z,267.49
2022-12-15T04:45:21.371Z,271.25
2022-12-15T04:46:16.630Z,273.51
2022-12-15T04:47:11.857Z,274.20
2022-12-15T04:48:07.080Z,277.68
2022-12-15T04:49:02.310Z,279.33
2022-12-15T04:49:57.529Z,279.81
2022-12-15T04:50:52.791Z,281.01
2022-12-15T04:51:48.022Z,281.25
2022-12-15T04:52:43.236Z,282.94
2022-12-15T04:53:38.626Z,283.19
2022-12-15T04:54:33.730Z,282.70
2022-12-15T04:55:29.076Z,283.68
2022-12-15T04:57:51.192Z,243.83
2022-12-15T04:58:46.311Z,255.41
2022-12-15T04:59:41.518Z,262.57
2022-12-15T05:00:36.796Z,268.14
2022-12-15T05:01:32.093Z,273.51
2022-12-15T05:02:27.551Z,275.81
2022-12-15T05:03:22.576Z,276.74
2022-12-15T05:04:17.947Z,275.11
2022-12-15T05:05:13.180Z,276.27
2022-12-15T05:06:08.426Z,275.35
2022-12-15T05:07:03.632Z,274.65
2022-12-15T05:07:58.993Z,274.42
2022-12-15T05:08:54.063Z,270.80
2022-12-15T05:09:49.409Z,269.69
2022-12-15T05:10:44.648Z,271.92
2022-12-15T05:11:39.868Z,271.25
2022-12-15T05:12:35.063Z,276.27
2022-12-15T05:13:30.718Z,277.68
2022-12-15T05:14:25.533Z,280.77
2022-12-15T05:15:20.879Z,289.43
2022-12-15T05:16:16.171Z,293.05
2022-12-15T05:17:11.383Z,299.20
2022-12-15T05:18:06.743Z,302.23
2022-12-15T05:19:01.983Z,306.18
2022-12-15T05:19:57.170Z,310.52
2022-12-15T05:20:52.449Z,314.39
2022-12-15T05:21:47.685Z,315.30
2022-12-15T05:22:42.885Z,320.54
2022-12-15T05:23:38.115Z,322.11
2022-12-15T05:24:33.329Z,320.85
2022-12-15T05:25:28.534Z,320.85
2022-12-15T05:26:23.943Z,321.48
2022-12-15T05:27:19.010Z,321.79
2022-12-15T05:28:14.499Z,319.60
2022-12-15T05:29:09.587Z,316.82
2022-12-15T05:30:04.818Z,315.30
2022-12-15T05:31:00.229Z,310.52
2022-12-15T05:31:55.320Z,313.79
2022-12-15T05:32:50.512Z,313.19
2022-12-15T05:33:45.760Z,313.49
2022-12-15T05:34:40.953Z,313.49
2022-12-15T05:35:36.326Z,314.39
2022-12-15T05:36:31.540Z,317.13
2022-12-15T05:37:26.798Z,316.52
2022-12-15T05:38:22.162Z,311.70
2022-12-15T05:39:17.300Z,311.11
2022-12-15T05:40:12.491Z,307.04
2022-12-15T05:41:07.810Z,308.19
2022-12-15T05:42:03.018Z,307.33
2022-12-15T05:42:58.403Z,307.61
2022-12-15T05:43:53.620Z,308.77
2022-12-15T05:44:49.059Z,310.82
2022-12-15T05:45:44.248Z,312.30
2022-12-15T05:46:39.629Z,306.18
2022-12-15T05:47:34.747Z,306.75
2022-12-15T05:48:30.136Z,309.06
2022-12-15T05:49:25.266Z,311.41
2022-12-15T05:50:20.555Z,312.89
2022-12-15T05:51:15.795Z,312.60
2022-12-15T05:52:11.185Z,310.82
2022-12-15T05:53:06.422Z,311.70
2022-12-15T05:54:01.690Z,307.04
2022-12-15T05:54:56.909Z,305.32
2022-12-15T05:55:52.296Z,300.29
2022-12-15T05:56:50.001Z,300.57
2022-12-15T05:57:42.805Z,291.75
2022-12-15T05:58:44.567Z,287.91
2022-12-15T05:59:34.355Z,287.66
2022-12-15T06:00:28.637Z,285.90
2022-12-15T06:01:24.008Z,283.92
2022-12-15T06:02:19.236Z,281.01
2022-12-15T06:03:14.538Z,278.86
2022-12-15T06:04:09.766Z,278.15
2022-12-15T06:05:05.036Z,278.62
2022-12-15T06:06:00.326Z,276.27
2022-12-15T06:06:55.622Z,277.44
2022-12-15T06:07:50.838Z,276.51
2022-12-15T06:08:46.320Z,269.91
2022-12-15T06:09:41.423Z,269.69
2022-12-15T06:10:36.773Z,277.44
2022-12-15T06:11:32.080Z,278.86
2022-12-15T06:12:27.326Z,280.29
2022-12-15T06:13:22.545Z,279.33
2022-12-15T06:14:17.784Z,278.15
2022-12-15T06:15:13.001Z,276.04
2022-12-15T06:16:08.328Z,276.04
2022-12-15T06:17:03.548Z,273.97
2022-12-15T06:17:58.789Z,273.74
2022-12-15T06:18:54.175Z,275.11
2022-12-15T06:19:49.275Z,271.25
2022-12-15T06:20:44.544Z,257.42
2022-12-15T06:21:41.024Z,255.81
2022-12-15T06:22:35.137Z,264.05
2022-12-15T06:23:30.881Z,267.05
2022-12-15T06:24:25.618Z,268.80
2022-12-15T06:25:20.884Z,271.25
2022-12-15T06:26:16.273Z,267.05
2022-12-15T06:27:11.441Z,269.69
2022-12-15T06:28:06.692Z,261.94
2022-12-15T06:29:01.995Z,267.27
2022-12-15T06:29:57.238Z,269.69
2022-12-15T06:30:52.518Z,270.80
2022-12-15T06:31:47.960Z,270.80
2022-12-15T06:32:43.163Z,271.70
2022-12-15T06:33:38.408Z,273.28
2022-12-15T06:34:33.721Z,274.65
2022-12-15T06:35:28.983Z,271.70
2022-12-15T06:36:24.387Z,270.58
2022-12-15T06:37:19.557Z,269.91
2022-12-15T06:38:14.826Z,270.13
2022-12-15T06:39:10.088Z,269.02
2022-12-15T06:40:05.334Z,267.49
2022-12-15T06:41:00.572Z,268.80
2022-12-15T06:41:55.860Z,274.42
2022-12-15T06:42:51.108Z,273.28
2022-12-15T06:43:46.384Z,276.04
2022-12-15T06:44:41.645Z,273.28
2022-12-15T06:45:36.927Z,273.28
2022-12-15T06:46:32.408Z,271.92
2022-12-15T06:47:27.543Z,271.47
2022-12-15T06:48:22.761Z,271.25
2022-12-15T06:49:18.072Z,269.24
2022-12-15T06:50:13.296Z,264.90
2022-12-15T06:51:13.425Z,258.43
2022-12-15T06:52:05.010Z,258.43
2022-12-15T06:52:59.380Z,259.25
2022-12-15T06:53:54.669Z,263.20
2022-12-15T06:54:50.035Z,262.99
2022-12-15T06:55:45.325Z,267.93
2022-12-15T06:56:40.908Z,264.26
2022-12-15T06:57:36.075Z,268.58
2022-12-15T06:58:31.396Z,267.71
2022-12-15T06:59:26.728Z,266.84
2022-12-15T07:00:22.028Z,266.40
2022-12-15T07:01:17.507Z,266.84
2022-12-15T07:02:12.820Z,272.60
2022-12-15T07:03:08.112Z,264.05
2022-12-15T07:04:03.691Z,263.41
2022-12-15T07:04:58.680Z,269.02
2022-12-15T07:05:54.035Z,267.27
2022-12-15T07:06:49.508Z,266.62
2022-12-15T07:07:44.719Z,268.80
2022-12-15T07:08:41.864Z,271.92
2022-12-15T07:09:35.424Z,276.04
2022-12-15T07:10:30.739Z,281.25
2022-12-15T07:11:26.060Z,283.68
2022-12-15T07:12:21.408Z,288.16
2022-12-15T07:13:16.720Z,289.69
2022-12-15T07:14:12.031Z,286.90
2022-12-15T07:15:07.353Z,277.44
2022-12-15T07:16:02.727Z,275.81
2022-12-15T07:16:58.227Z,278.15
2022-12-15T07:17:53.391Z,279.81
2022-12-15T07:18:48.728Z,283.92
2022-12-15T07:19:44.009Z,284.91
2022-12-15T07:20:39.307Z,288.67
2022-12-15T07:21:34.584Z,290.97
2022-12-15T07:22:29.978Z,293.58
2022-12-15T07:23:39.933Z,294.90
2022-12-15T07:24:21.776Z,298.65
2022-12-15T07:25:16.067Z,300.29
2022-12-15T07:26:11.911Z,294.63
2022-12-15T07:27:06.871Z,278.38
2022-12-15T07:28:02.146Z,271.25
2022-12-15T07:28:57.505Z,274.65
2022-12-15T07:29:53.026Z,274.65
2022-12-15T07:30:48.337Z,267.27
2022-12-15T07:31:43.765Z,270.80
2022-12-15T07:32:39.130Z,274.65
2022-12-15T07:33:34.663Z,282.94
2022-12-15T07:34:29.929Z,286.90
2022-12-15T07:35:25.186Z,291.75
2022-12-15T07:36:20.530Z,295.69
2022-12-15T07:37:15.998Z,295.96
2022-12-15T07:38:11.216Z,299.20
2022-12-15T07:39:06.573Z,299.20
2022-12-15T07:40:01.957Z,297.57
2022-12-15T07:40:57.328Z,293.31
2022-12-15T07:41:52.694Z,290.97
2022-12-15T07:42:48.147Z,292.27
2022-12-15T07:43:43.703Z,288.42
2022-12-15T07:44:39.134Z,284.66
2022-12-15T07:45:34.598Z,285.16
2022-12-15T07:46:30.148Z,287.66
2022-12-15T07:47:25.331Z,288.67
2022-12-15T07:48:20.797Z,273.28
2022-12-15T07:49:16.190Z,267.93
2022-12-15T07:50:11.766Z,269.24
2022-12-15T07:51:12.468Z,271.92
2022-12-15T07:52:03.629Z,276.51
2022-12-15T07:52:57.961Z,270.58
2022-12-15T07:53:53.388Z,269.02
2022-12-15T07:54:48.806Z,274.42
2022-12-15T07:56:06.023Z,282.46
2022-12-15T07:56:40.829Z,283.92
2022-12-15T07:57:35.334Z,285.16
2022-12-15T07:58:30.724Z,285.90
2022-12-15T07:59:26.177Z,282.94
2022-12-15T08:00:21.576Z,280.52
2022-12-15T08:01:17.118Z,281.97
2022-12-15T08:02:12.635Z,286.40
2022-12-15T08:03:07.869Z,286.15
2022-12-15T08:04:03.334Z,288.67
2022-12-15T08:04:58.783Z,288.92
2022-12-15T08:05:57.697Z,286.15
2022-12-15T08:06:50.641Z,284.66
2022-12-15T08:07:44.968Z,282.21
2022-12-15T08:08:40.432Z,278.62
2022-12-15T08:09:35.725Z,277.91
2022-12-15T08:10:31.149Z,275.11
2022-12-15T08:11:26.541Z,270.58
2022-12-15T08:12:22.105Z,270.58
2022-12-15T08:13:38.050Z,271.25
2022-12-15T08:14:17.629Z,277.21
2022-12-15T08:15:08.225Z,282.94
2022-12-15T08:16:03.684Z,279.33
2022-12-15T08:16:59.163Z,270.80
2022-12-15T08:17:54.469Z,272.37
2022-12-15T08:18:49.870Z,277.44
2022-12-15T08:19:45.405Z,281.97
2022-12-15T08:20:40.703Z,281.25
2022-12-15T08:21:36.116Z,283.68
2022-12-15T08:22:31.528Z,282.70
2022-12-15T08:23:27.119Z,278.86
2022-12-15T08:24:22.378Z,276.97
2022-12-15T08:25:17.816Z,274.65
2022-12-15T08:26:13.243Z,273.28
2022-12-15T08:27:08.674Z,273.97
2022-12-15T08:28:04.127Z,269.91
2022-12-15T08:29:17.411Z,270.35
2022-12-15T08:29:56.058Z,271.70
2022-12-15T08:30:50.395Z,269.47
2022-12-15T08:31:45.982Z,269.24
2022-12-15T08:32:41.529Z,263.41
2022-12-15T08:33:36.852Z,258.84
2022-12-15T08:34:32.259Z,252.08
2022-12-15T08:35:55.155Z,254.03
2022-12-15T08:36:24.166Z,254.62
2022-12-15T08:37:18.586Z,256.01
2022-12-15T08:38:13.567Z,251.30
2022-12-15T08:39:08.682Z,247.89
2022-12-15T08:40:03.711Z,248.07
2022-12-15T08:40:58.844Z,244.74
2022-12-15T08:41:53.845Z,249.96
2022-12-15T08:42:48.878Z,258.63
2022-12-15T08:43:48.516Z,258.43
2022-12-15T08:44:40.172Z,261.31
2022-12-15T08:45:34.674Z,261.31
2022-12-15T08:46:30.284Z,262.15
2022-12-15T08:47:25.523Z,263.83
2022-12-15T08:48:21.079Z,258.63
2022-12-15T08:49:21.478Z,259.25
2022-12-15T08:50:13.059Z,257.01
2022-12-15T08:51:07.591Z,249.39
2022-12-15T08:52:03.106Z,243.29
2022-12-15T08:53:28.980Z,244.38
2022-12-15T08:53:55.170Z,246.40
2022-12-15T08:54:49.573Z,247.14
2022-12-15T08:55:45.048Z,246.95
2022-12-15T08:56:40.551Z,251.69
2022-12-15T08:57:35.631Z,254.62
2022-12-15T08:58:30.666Z,256.61
2022-12-15T08:59:25.715Z,258.84
2022-12-15T09:00:20.925Z,259.25
2022-12-15T09:01:20.730Z,261.10
2022-12-15T09:02:12.224Z,261.10
2022-12-15T09:03:06.096Z,263.62
2022-12-15T09:04:01.235Z,264.47
2022-12-15T09:04:56.231Z,262.99
2022-12-15T09:05:51.284Z,260.69
2022-12-15T09:06:46.785Z,261.10
2022-12-15T09:07:42.717Z,256.21
2022-12-15T09:08:38.214Z,255.01
2022-12-15T09:09:33.380Z,244.56
2022-12-15T09:10:28.641Z,236.97
2022-12-15T09:11:23.528Z,232.60
2022-12-15T09:12:18.594Z,230.15
2022-12-15T09:13:13.659Z,240.62
2022-12-15T09:14:08.842Z,249.58
2022-12-15T09:15:03.906Z,257.42
2022-12-15T09:16:14.242Z,262.78
2022-12-15T09:16:55.043Z,265.76
2022-12-15T09:17:49.047Z,267.27
2022-12-15T09:18:44.056Z,270.13
2022-12-15T09:19:39.398Z,273.74
2022-12-15T09:20:34.899Z,274.65
2022-12-15T09:21:30.392Z,275.81
2022-12-15T09:22:25.924Z,277.44
2022-12-15T09:23:21.307Z,277.91
2022-12-15T09:24:25.854Z,275.81
2022-12-15T09:25:13.367Z,279.57
2022-12-15T09:26:07.768Z,277.91
2022-12-15T09:27:03.415Z,274.88
2022-12-15T09:27:58.684Z,274.20
2022-12-15T09:28:54.131Z,269.91
2022-12-15T09:29:49.723Z,263.41
2022-12-15T09:30:45.269Z,255.01
2022-12-15T09:31:40.604Z,248.83
2022-12-15T09:32:36.988Z,246.21
2022-12-15T09:33:35.506Z,240.79
2022-12-15T09:34:30.642Z,242.39
2022-12-15T09:35:26.017Z,239.21
2022-12-15T09:36:21.452Z,240.09
2022-12-15T09:37:16.884Z,240.44
2022-12-15T09:38:12.496Z,243.65
2022-12-15T09:39:07.967Z,244.02
2022-12-15T09:40:03.429Z,241.86
2022-12-15T09:40:58.867Z,243.83
2022-12-15T09:41:54.348Z,249.58
2022-12-15T09:42:59.769Z,249.96
2022-12-15T09:43:47.581Z,248.07
2022-12-15T09:44:39.353Z,247.89
2022-12-15T09:45:34.461Z,245.48
2022-12-15T09:46:29.569Z,243.83
2022-12-15T09:47:24.632Z,244.38
2022-12-15T09:48:19.666Z,241.68
2022-12-15T09:49:14.772Z,238.34
2022-12-15T09:50:09.780Z,235.77
2022-12-15T09:51:04.885Z,236.80
2022-12-15T09:52:00.933Z,239.21
2022-12-15T09:52:55.510Z,241.68
2022-12-15T09:53:55.480Z,241.32
2022-12-15T09:54:46.697Z,241.68
2022-12-15T09:55:40.576Z,245.48
2022-12-15T09:56:37.807Z,250.15
2022-12-15T09:57:32.858Z,249.21
2022-12-15T09:58:27.926Z,217.49
2022-12-15T09:59:22.913Z,201.96
2022-12-15T10:00:18.635Z,199.75
2022-12-15T10:01:14.111Z,207.71
2022-12-15T10:02:09.718Z,214.79
2022-12-15T10:03:05.182Z,219.09
2022-12-15T10:04:01.264Z,224.95
2022-12-15T10:04:55.972Z,226.18
2022-12-15T10:06:14.826Z,227.44
2022-12-15T10:06:50.668Z,228.39
2022-12-15T10:07:42.572Z,229.83
2022-12-15T10:08:38.170Z,229.03
2022-12-15T10:09:33.534Z,226.18
2022-12-15T10:10:28.995Z,226.81
2022-12-15T10:11:24.482Z,228.07
2022-12-15T10:12:19.917Z,232.43
2022-12-15T10:13:14.948Z,233.10
2022-12-15T10:14:10.008Z,236.62
2022-12-15T10:15:05.116Z,236.11
2022-12-15T10:16:00.228Z,238.17
2022-12-15T10:16:55.307Z,235.44
2022-12-15T10:17:50.438Z,235.60
2022-12-15T10:18:45.507Z,237.82
2022-12-15T10:19:43.871Z,240.09
2022-12-15T10:20:39.385Z,240.62
2022-12-15T10:21:33.759Z,243.29
2022-12-15T10:22:29.260Z,245.29
2022-12-15T10:23:25.030Z,246.40
2022-12-15T10:25:16.972Z,244.74
2022-12-15T10:26:11.367Z,244.74
2022-12-15T10:27:06.796Z,244.93
2022-12-15T10:28:02.251Z,247.33
2022-12-15T10:28:57.749Z,247.70
2022-12-15T10:29:53.415Z,248.64
2022-12-15T10:30:48.825Z,244.93
2022-12-15T10:31:44.194Z,244.20
2022-12-15T10:32:42.948Z,244.74
2022-12-15T10:33:34.941Z,247.33
2022-12-15T10:34:29.758Z,245.84
2022-12-15T10:35:24.725Z,244.38
2022-12-15T10:36:19.757Z,246.21
2022-12-15T10:37:14.849Z,246.77
2022-12-15T10:38:09.888Z,246.95
2022-12-15T10:39:05.008Z,249.58
2022-12-15T10:40:00.046Z,255.01
2022-12-15T10:40:55.107Z,257.21
2022-12-15T10:41:50.192Z,259.25
2022-12-15T10:42:46.872Z,256.61
2022-12-15T10:43:41.959Z,252.66
2022-12-15T10:44:36.922Z,253.05
2022-12-15T10:45:31.981Z,249.96
2022-12-15T10:46:27.652Z,245.66
2022-12-15T10:47:23.017Z,243.29
2022-12-15T10:48:19.050Z,239.74
2022-12-15T10:49:14.367Z,240.62
2022-12-15T10:50:09.866Z,238.34
2022-12-15T10:51:05.286Z,239.39
2022-12-15T10:52:00.908Z,239.21
2022-12-15T10:52:56.219Z,241.15
2022-12-15T10:53:51.708Z,241.15
2022-12-15T10:54:47.188Z,239.39
2022-12-15T10:55:42.742Z,238.34
2022-12-15T10:58:03.546Z,212.70
2022-12-15T10:58:58.913Z,219.82
2022-12-15T10:59:54.372Z,225.56
2022-12-15T11:00:51.041Z,229.67
2022-12-15T11:01:45.401Z,231.94
2022-12-15T11:02:40.776Z,232.43
2022-12-15T11:03:36.895Z,234.09
2022-12-15T11:04:31.765Z,236.80
2022-12-15T11:05:27.238Z,230.48
2022-12-15T11:06:22.714Z,229.67
2022-12-15T11:07:18.157Z,225.10
2022-12-15T11:08:13.582Z,224.33
2022-12-15T11:09:09.038Z,223.87
2022-12-15T11:10:04.420Z,222.35
2022-12-15T11:10:59.980Z,220.86
2022-12-15T11:11:55.407Z,221.90
2022-12-15T11:12:50.865Z,223.72
2022-12-15T11:13:46.362Z,225.56
2022-12-15T11:14:41.934Z,225.87
2022-12-15T11:15:37.444Z,227.12
2022-12-15T11:16:32.855Z,227.76
2022-12-15T11:17:28.152Z,227.76
2022-12-15T11:18:23.633Z,229.35
2022-12-15T11:19:19.129Z,232.60
2022-12-15T11:20:14.610Z,233.76
2022-12-15T11:21:10.203Z,233.10
2022-12-15T11:22:05.669Z,231.78
2022-12-15T11:23:01.097Z,228.87
2022-12-15T11:23:56.607Z,230.15
2022-12-15T11:24:52.100Z,230.15
2022-12-15T11:25:47.650Z,228.23
2022-12-15T11:26:43.071Z,229.99
2022-12-15T11:27:38.505Z,228.55
2022-12-15T11:28:34.059Z,229.51
2022-12-15T11:29:29.458Z,228.23
2022-12-15T11:30:24.932Z,232.76
2022-12-15T11:31:20.547Z,235.10
2022-12-15T11:32:15.993Z,233.76
2022-12-15T11:33:11.446Z,234.93
2022-12-15T11:34:06.856Z,232.10